sensor_id;sensor_type;location;lat;lon;timestamp;P1;durP1;ratioP1;P2;durP2;ratioP2
21814;SDS011;11069;48.988;8.450;2023-06-10T00:00:55;9.07;;;7.68;;
21814;SDS011;11069;48.988;8.450;2023-06-10T00:03:21;7.93;;;7.13;;
21814;SDS011;11069;48.988;8.450;2023-06-10T00:05:49;8.18;;;6.93;;
21814;SDS011;11069;48.988;8.450;2023-06-10T00:08:15;8.05;;;7.15;;
21814;SDS011;11069;48.988;8.450;2023-06-10T00:10:44;9.18;;;7.30;;
21814;SDS011;11069;48.988;8.450;2023-06-10T00:13:10;8.48;;;7.28;;
21814;SDS011;11069;48.988;8.450;2023-06-10T00:15:36;8.73;;;7.45;;
21814;SDS011;11069;48.988;8.450;2023-06-10T00:18:03;9.07;;;7.57;;
21814;SDS011;11069;48.988;8.450;2023-06-10T00:20:29;8.10;;;7.10;;
21814;SDS011;11069;48.988;8.450;2023-06-10T00:22:56;11.00;;;8.50;;
21814;SDS011;11069;48.988;8.450;2023-06-10T00:25:22;8.70;;;7.53;;
21814;SDS011;11069;48.988;8.450;2023-06-10T00:27:48;9.60;;;7.57;;
21814;SDS011;11069;48.988;8.450;2023-06-10T00:30:14;8.60;;;7.15;;
21814;SDS011;11069;48.988;8.450;2023-06-10T00:32:40;9.10;;;7.50;;
21814;SDS011;11069;48.988;8.450;2023-06-10T00:35:06;8.60;;;7.70;;
21814;SDS011;11069;48.988;8.450;2023-06-10T00:37:32;9.32;;;7.72;;
21814;SDS011;11069;48.988;8.450;2023-06-10T00:40:01;10.35;;;8.15;;
21814;SDS011;11069;48.988;8.450;2023-06-10T00:42:27;7.82;;;6.78;;
21814;SDS011;11069;48.988;8.450;2023-06-10T00:44:56;8.95;;;7.22;;
21814;SDS011;11069;48.988;8.450;2023-06-10T00:47:22;9.40;;;7.97;;
21814;SDS011;11069;48.988;8.450;2023-06-10T00:49:49;8.20;;;7.38;;
21814;SDS011;11069;48.988;8.450;2023-06-10T00:52:16;10.88;;;8.02;;
21814;SDS011;11069;48.988;8.450;2023-06-10T00:54:42;9.52;;;7.68;;
21814;SDS011;11069;48.988;8.450;2023-06-10T00:57:08;10.55;;;8.30;;
21814;SDS011;11069;48.988;8.450;2023-06-10T00:59:34;10.63;;;8.38;;
21814;SDS011;11069;48.988;8.450;2023-06-10T01:02:00;10.45;;;8.43;;
21814;SDS011;11069;48.988;8.450;2023-06-10T01:04:27;9.93;;;8.13;;
21814;SDS011;11069;48.988;8.450;2023-06-10T01:07:12;9.05;;;7.90;;
21814;SDS011;11069;48.988;8.450;2023-06-10T01:12:37;9.23;;;7.50;;
21814;SDS011;11069;48.988;8.450;2023-06-10T01:15:05;9.82;;;8.18;;
21814;SDS011;11069;48.988;8.450;2023-06-10T01:17:31;9.82;;;7.97;;
21814;SDS011;11069;48.988;8.450;2023-06-10T01:19:57;8.35;;;7.35;;
21814;SDS011;11069;48.988;8.450;2023-06-10T01:22:24;9.23;;;7.82;;
21814;SDS011;11069;48.988;8.450;2023-06-10T01:24:51;9.27;;;7.82;;
21814;SDS011;11069;48.988;8.450;2023-06-10T01:27:18;10.38;;;8.02;;
21814;SDS011;11069;48.988;8.450;2023-06-10T01:29:48;9.30;;;7.85;;
21814;SDS011;11069;48.988;8.450;2023-06-10T01:34:46;10.90;;;8.38;;
21814;SDS011;11069;48.988;8.450;2023-06-10T01:37:14;8.73;;;7.63;;
21814;SDS011;11069;48.988;8.450;2023-06-10T01:39:41;9.05;;;7.78;;
21814;SDS011;11069;48.988;8.450;2023-06-10T01:42:08;9.50;;;8.40;;
21814;SDS011;11069;48.988;8.450;2023-06-10T01:44:35;10.05;;;7.90;;
21814;SDS011;11069;48.988;8.450;2023-06-10T01:47:01;9.93;;;8.07;;
21814;SDS011;11069;48.988;8.450;2023-06-10T01:49:27;11.30;;;7.85;;
21814;SDS011;11069;48.988;8.450;2023-06-10T01:51:53;8.88;;;7.97;;
21814;SDS011;11069;48.988;8.450;2023-06-10T01:54:19;9.27;;;7.78;;
21814;SDS011;11069;48.988;8.450;2023-06-10T01:56:45;9.73;;;8.45;;
21814;SDS011;11069;48.988;8.450;2023-06-10T01:59:11;8.70;;;7.20;;
21814;SDS011;11069;48.988;8.450;2023-06-10T02:01:37;8.30;;;7.47;;
21814;SDS011;11069;48.988;8.450;2023-06-10T02:04:03;8.63;;;7.50;;
21814;SDS011;11069;48.988;8.450;2023-06-10T02:06:29;11.27;;;7.50;;
21814;SDS011;11069;48.988;8.450;2023-06-10T02:08:55;8.15;;;7.28;;
21814;SDS011;11069;48.988;8.450;2023-06-10T02:11:21;9.32;;;7.75;;
21814;SDS011;11069;48.988;8.450;2023-06-10T02:13:47;9.75;;;7.35;;
21814;SDS011;11069;48.988;8.450;2023-06-10T02:16:13;9.93;;;7.85;;
21814;SDS011;11069;48.988;8.450;2023-06-10T02:18:41;10.85;;;7.57;;
21814;SDS011;11069;48.988;8.450;2023-06-10T02:21:11;9.30;;;6.97;;
21814;SDS011;11069;48.988;8.450;2023-06-10T02:23:37;9.02;;;7.75;;
21814;SDS011;11069;48.988;8.450;2023-06-10T02:26:03;9.82;;;7.70;;
21814;SDS011;11069;48.988;8.450;2023-06-10T02:28:29;8.50;;;7.57;;
21814;SDS011;11069;48.988;8.450;2023-06-10T02:30:55;10.07;;;7.85;;
21814;SDS011;11069;48.988;8.450;2023-06-10T02:33:22;10.43;;;8.43;;
21814;SDS011;11069;48.988;8.450;2023-06-10T02:35:48;9.20;;;7.65;;
21814;SDS011;11069;48.988;8.450;2023-06-10T02:38:14;9.15;;;7.97;;
21814;SDS011;11069;48.988;8.450;2023-06-10T02:40:40;8.70;;;7.78;;
21814;SDS011;11069;48.988;8.450;2023-06-10T02:43:06;9.23;;;7.65;;
21814;SDS011;11069;48.988;8.450;2023-06-10T02:45:32;8.55;;;7.50;;
21814;SDS011;11069;48.988;8.450;2023-06-10T02:47:58;8.98;;;7.55;;
21814;SDS011;11069;48.988;8.450;2023-06-10T02:50:24;10.23;;;7.78;;
21814;SDS011;11069;48.988;8.450;2023-06-10T02:52:50;9.02;;;8.02;;
21814;SDS011;11069;48.988;8.450;2023-06-10T02:55:16;7.50;;;6.72;;
21814;SDS011;11069;48.988;8.450;2023-06-10T02:57:42;8.57;;;7.38;;
21814;SDS011;11069;48.988;8.450;2023-06-10T03:00:08;9.25;;;7.85;;
21814;SDS011;11069;48.988;8.450;2023-06-10T03:02:36;7.95;;;6.88;;
21814;SDS011;11069;48.988;8.450;2023-06-10T03:05:04;7.82;;;7.00;;
21814;SDS011;11069;48.988;8.450;2023-06-10T03:07:30;8.52;;;7.43;;
21814;SDS011;11069;48.988;8.450;2023-06-10T03:09:57;9.40;;;7.63;;
21814;SDS011;11069;48.988;8.450;2023-06-10T03:12:23;9.27;;;7.18;;
21814;SDS011;11069;48.988;8.450;2023-06-10T03:14:49;8.73;;;7.32;;
21814;SDS011;11069;48.988;8.450;2023-06-10T03:17:15;9.60;;;7.68;;
21814;SDS011;11069;48.988;8.450;2023-06-10T03:19:40;8.18;;;7.20;;
21814;SDS011;11069;48.988;8.450;2023-06-10T03:22:10;9.18;;;7.60;;
21814;SDS011;11069;48.988;8.450;2023-06-10T03:24:36;8.95;;;7.93;;
21814;SDS011;11069;48.988;8.450;2023-06-10T03:27:05;9.10;;;7.15;;
21814;SDS011;11069;48.988;8.450;2023-06-10T03:29:31;9.10;;;7.60;;
21814;SDS011;11069;48.988;8.450;2023-06-10T03:31:57;9.32;;;7.75;;
21814;SDS011;11069;48.988;8.450;2023-06-10T03:34:23;8.65;;;7.20;;
21814;SDS011;11069;48.988;8.450;2023-06-10T03:36:49;9.80;;;7.90;;
21814;SDS011;11069;48.988;8.450;2023-06-10T03:39:15;10.02;;;7.28;;
21814;SDS011;11069;48.988;8.450;2023-06-10T03:41:41;9.45;;;8.00;;
21814;SDS011;11069;48.988;8.450;2023-06-10T03:44:07;8.48;;;7.57;;
21814;SDS011;11069;48.988;8.450;2023-06-10T03:46:33;10.25;;;7.90;;
21814;SDS011;11069;48.988;8.450;2023-06-10T03:48:59;8.95;;;7.40;;
21814;SDS011;11069;48.988;8.450;2023-06-10T03:51:28;8.50;;;7.13;;
21814;SDS011;11069;48.988;8.450;2023-06-10T03:53:54;8.27;;;7.40;;
21814;SDS011;11069;48.988;8.450;2023-06-10T03:56:20;9.88;;;7.88;;
21814;SDS011;11069;48.988;8.450;2023-06-10T03:58:46;8.88;;;7.75;;
21814;SDS011;11069;48.988;8.450;2023-06-10T04:01:12;10.18;;;8.07;;
21814;SDS011;11069;48.988;8.450;2023-06-10T04:03:38;10.45;;;7.93;;
21814;SDS011;11069;48.988;8.450;2023-06-10T04:06:06;9.05;;;7.30;;
21814;SDS011;11069;48.988;8.450;2023-06-10T04:08:32;8.90;;;8.00;;
21814;SDS011;11069;48.988;8.450;2023-06-10T04:10:58;8.63;;;7.55;;
21814;SDS011;11069;48.988;8.450;2023-06-10T04:13:24;8.85;;;7.78;;
21814;SDS011;11069;48.988;8.450;2023-06-10T04:15:51;8.98;;;7.30;;
21814;SDS011;11069;48.988;8.450;2023-06-10T04:18:17;8.30;;;7.22;;
21814;SDS011;11069;48.988;8.450;2023-06-10T04:20:43;8.43;;;7.50;;
21814;SDS011;11069;48.988;8.450;2023-06-10T04:23:09;8.48;;;7.20;;
21814;SDS011;11069;48.988;8.450;2023-06-10T04:25:35;8.50;;;6.82;;
21814;SDS011;11069;48.988;8.450;2023-06-10T04:28:01;9.40;;;7.30;;
21814;SDS011;11069;48.988;8.450;2023-06-10T04:30:27;8.57;;;7.68;;
21814;SDS011;11069;48.988;8.450;2023-06-10T04:32:53;10.60;;;7.30;;
21814;SDS011;11069;48.988;8.450;2023-06-10T04:35:19;9.02;;;7.90;;
21814;SDS011;11069;48.988;8.450;2023-06-10T04:37:46;8.57;;;7.50;;
21814;SDS011;11069;48.988;8.450;2023-06-10T04:40:12;8.40;;;7.25;;
21814;SDS011;11069;48.988;8.450;2023-06-10T04:42:38;8.88;;;7.60;;
21814;SDS011;11069;48.988;8.450;2023-06-10T04:45:04;9.75;;;8.05;;
21814;SDS011;11069;48.988;8.450;2023-06-10T04:47:31;8.27;;;7.30;;
21814;SDS011;11069;48.988;8.450;2023-06-10T04:49:58;9.05;;;7.55;;
21814;SDS011;11069;48.988;8.450;2023-06-10T04:52:24;8.35;;;7.22;;
21814;SDS011;11069;48.988;8.450;2023-06-10T04:54:50;8.50;;;7.30;;
21814;SDS011;11069;48.988;8.450;2023-06-10T04:57:16;7.40;;;6.68;;
21814;SDS011;11069;48.988;8.450;2023-06-10T04:59:42;10.30;;;7.25;;
21814;SDS011;11069;48.988;8.450;2023-06-10T05:02:08;7.80;;;6.95;;
21814;SDS011;11069;48.988;8.450;2023-06-10T05:04:34;8.90;;;7.20;;
21814;SDS011;11069;48.988;8.450;2023-06-10T05:07:00;7.50;;;6.55;;
21814;SDS011;11069;48.988;8.450;2023-06-10T05:09:26;7.50;;;6.65;;
21814;SDS011;11069;48.988;8.450;2023-06-10T05:11:52;9.20;;;6.30;;
21814;SDS011;11069;48.988;8.450;2023-06-10T05:14:18;8.45;;;6.50;;
21814;SDS011;11069;48.988;8.450;2023-06-10T05:16:46;8.25;;;6.57;;
21814;SDS011;11069;48.988;8.450;2023-06-10T05:19:12;9.05;;;7.45;;
21814;SDS011;11069;48.988;8.450;2023-06-10T05:21:38;10.10;;;7.10;;
21814;SDS011;11069;48.988;8.450;2023-06-10T05:24:04;7.30;;;6.53;;
21814;SDS011;11069;48.988;8.450;2023-06-10T05:26:30;8.38;;;6.30;;
21814;SDS011;11069;48.988;8.450;2023-06-10T05:29:02;9.00;;;6.28;;
21814;SDS011;11069;48.988;8.450;2023-06-10T05:31:28;7.93;;;6.38;;
21814;SDS011;11069;48.988;8.450;2023-06-10T05:33:54;9.05;;;6.57;;
21814;SDS011;11069;48.988;8.450;2023-06-10T05:36:20;6.75;;;6.10;;
21814;SDS011;11069;48.988;8.450;2023-06-10T05:38:46;7.03;;;6.10;;
21814;SDS011;11069;48.988;8.450;2023-06-10T05:41:12;8.00;;;6.32;;
21814;SDS011;11069;48.988;8.450;2023-06-10T05:43:38;7.28;;;5.75;;
21814;SDS011;11069;48.988;8.450;2023-06-10T05:46:04;6.63;;;5.70;;
21814;SDS011;11069;48.988;8.450;2023-06-10T05:48:30;7.25;;;5.50;;
21814;SDS011;11069;48.988;8.450;2023-06-10T05:50:56;6.38;;;5.57;;
21814;SDS011;11069;48.988;8.450;2023-06-10T05:53:22;6.57;;;5.90;;
21814;SDS011;11069;48.988;8.450;2023-06-10T05:55:47;6.47;;;5.47;;
21814;SDS011;11069;48.988;8.450;2023-06-10T05:58:14;6.40;;;5.38;;
21814;SDS011;11069;48.988;8.450;2023-06-10T06:00:40;7.15;;;5.95;;
21814;SDS011;11069;48.988;8.450;2023-06-10T06:03:06;6.10;;;5.13;;
21814;SDS011;11069;48.988;8.450;2023-06-10T06:05:33;6.65;;;5.65;;
21814;SDS011;11069;48.988;8.450;2023-06-10T06:08:03;5.95;;;5.35;;
21814;SDS011;11069;48.988;8.450;2023-06-10T06:10:29;7.03;;;5.32;;
21814;SDS011;11069;48.988;8.450;2023-06-10T06:12:55;8.85;;;4.75;;
21814;SDS011;11069;48.988;8.450;2023-06-10T06:15:21;5.47;;;4.80;;
21814;SDS011;11069;48.988;8.450;2023-06-10T06:17:47;5.65;;;5.05;;
21814;SDS011;11069;48.988;8.450;2023-06-10T06:20:13;5.32;;;4.18;;
21814;SDS011;11069;48.988;8.450;2023-06-10T06:22:39;5.85;;;4.57;;
21814;SDS011;11069;48.988;8.450;2023-06-10T06:25:05;5.07;;;4.50;;
21814;SDS011;11069;48.988;8.450;2023-06-10T06:27:31;5.45;;;4.47;;
21814;SDS011;11069;48.988;8.450;2023-06-10T06:29:57;6.30;;;4.40;;
21814;SDS011;11069;48.988;8.450;2023-06-10T06:32:24;5.57;;;4.47;;
21814;SDS011;11069;48.988;8.450;2023-06-10T06:34:52;5.32;;;4.28;;
21814;SDS011;11069;48.988;8.450;2023-06-10T06:37:21;6.18;;;4.45;;
21814;SDS011;11069;48.988;8.450;2023-06-10T06:39:48;5.38;;;4.57;;
21814;SDS011;11069;48.988;8.450;2023-06-10T06:42:14;5.15;;;4.35;;
21814;SDS011;11069;48.988;8.450;2023-06-10T06:44:40;4.65;;;3.95;;
21814;SDS011;11069;48.988;8.450;2023-06-10T06:47:06;4.65;;;4.15;;
21814;SDS011;11069;48.988;8.450;2023-06-10T06:49:32;5.00;;;3.97;;
21814;SDS011;11069;48.988;8.450;2023-06-10T06:51:58;4.47;;;4.07;;
21814;SDS011;11069;48.988;8.450;2023-06-10T06:54:24;4.70;;;4.28;;
21814;SDS011;11069;48.988;8.450;2023-06-10T06:56:50;4.32;;;3.67;;
21814;SDS011;11069;48.988;8.450;2023-06-10T06:59:16;4.43;;;3.78;;
21814;SDS011;11069;48.988;8.450;2023-06-10T07:01:44;5.13;;;4.40;;
21814;SDS011;11069;48.988;8.450;2023-06-10T07:04:10;5.65;;;4.22;;
21814;SDS011;11069;48.988;8.450;2023-06-10T07:06:36;4.40;;;4.00;;
21814;SDS011;11069;48.988;8.450;2023-06-10T07:09:03;5.57;;;4.10;;
21814;SDS011;11069;48.988;8.450;2023-06-10T07:11:29;5.45;;;4.20;;
21814;SDS011;11069;48.988;8.450;2023-06-10T07:13:55;5.40;;;4.03;;
21814;SDS011;11069;48.988;8.450;2023-06-10T07:16:21;4.43;;;3.90;;
21814;SDS011;11069;48.988;8.450;2023-06-10T07:18:47;4.75;;;4.20;;
21814;SDS011;11069;48.988;8.450;2023-06-10T07:21:13;4.32;;;3.90;;
21814;SDS011;11069;48.988;8.450;2023-06-10T07:23:42;5.13;;;4.00;;
21814;SDS011;11069;48.988;8.450;2023-06-10T07:26:09;5.05;;;4.45;;
21814;SDS011;11069;48.988;8.450;2023-06-10T07:28:36;4.57;;;3.88;;
21814;SDS011;11069;48.988;8.450;2023-06-10T07:31:02;5.78;;;3.78;;
21814;SDS011;11069;48.988;8.450;2023-06-10T07:33:28;6.25;;;4.18;;
21814;SDS011;11069;48.988;8.450;2023-06-10T07:35:54;7.90;;;4.40;;
21814;SDS011;11069;48.988;8.450;2023-06-10T07:38:20;4.97;;;4.05;;
21814;SDS011;11069;48.988;8.450;2023-06-10T07:40:46;4.90;;;4.40;;
21814;SDS011;11069;48.988;8.450;2023-06-10T07:43:12;5.00;;;4.50;;
21814;SDS011;11069;48.988;8.450;2023-06-10T07:45:41;4.90;;;3.97;;
21814;SDS011;11069;48.988;8.450;2023-06-10T07:48:07;6.05;;;4.00;;
21814;SDS011;11069;48.988;8.450;2023-06-10T07:50:33;4.40;;;4.00;;
21814;SDS011;11069;48.988;8.450;2023-06-10T07:53:00;4.55;;;3.72;;
21814;SDS011;11069;48.988;8.450;2023-06-10T07:55:26;4.25;;;3.85;;
21814;SDS011;11069;48.988;8.450;2023-06-10T07:57:52;5.10;;;3.90;;
21814;SDS011;11069;48.988;8.450;2023-06-10T08:00:19;4.45;;;3.78;;
21814;SDS011;11069;48.988;8.450;2023-06-10T08:02:45;5.10;;;3.88;;
21814;SDS011;11069;48.988;8.450;2023-06-10T08:05:11;4.68;;;4.13;;
21814;SDS011;11069;48.988;8.450;2023-06-10T08:07:38;3.92;;;3.45;;
21814;SDS011;11069;48.988;8.450;2023-06-10T08:10:06;4.85;;;3.90;;
21814;SDS011;11069;48.988;8.450;2023-06-10T08:12:33;4.45;;;3.85;;
21814;SDS011;11069;48.988;8.450;2023-06-10T08:14:59;4.40;;;3.70;;
21814;SDS011;11069;48.988;8.450;2023-06-10T08:17:25;3.83;;;3.40;;
21814;SDS011;11069;48.988;8.450;2023-06-10T08:19:51;4.95;;;3.30;;
21814;SDS011;11069;48.988;8.450;2023-06-10T08:22:17;4.22;;;3.30;;
21814;SDS011;11069;48.988;8.450;2023-06-10T08:24:43;4.07;;;3.40;;
21814;SDS011;11069;48.988;8.450;2023-06-10T08:27:09;3.10;;;2.80;;
21814;SDS011;11069;48.988;8.450;2023-06-10T08:29:35;2.60;;;2.40;;
21814;SDS011;11069;48.988;8.450;2023-06-10T08:32:01;4.05;;;2.90;;
21814;SDS011;11069;48.988;8.450;2023-06-10T08:34:28;3.72;;;2.65;;
21814;SDS011;11069;48.988;8.450;2023-06-10T08:36:54;3.83;;;3.40;;
21814;SDS011;11069;48.988;8.450;2023-06-10T08:39:21;3.97;;;3.05;;
21814;SDS011;11069;48.988;8.450;2023-06-10T08:44:23;3.00;;;2.70;;
21814;SDS011;11069;48.988;8.450;2023-06-10T08:46:51;3.38;;;2.95;;
21814;SDS011;11069;48.988;8.450;2023-06-10T08:49:18;4.22;;;3.35;;
21814;SDS011;11069;48.988;8.450;2023-06-10T08:51:47;4.53;;;2.80;;
21814;SDS011;11069;48.988;8.450;2023-06-10T08:54:18;5.78;;;3.38;;
21814;SDS011;11069;48.988;8.450;2023-06-10T08:56:47;6.47;;;3.78;;
21814;SDS011;11069;48.988;8.450;2023-06-10T08:59:13;3.85;;;3.40;;
21814;SDS011;11069;48.988;8.450;2023-06-10T09:01:41;4.68;;;3.63;;
21814;SDS011;11069;48.988;8.450;2023-06-10T09:04:08;4.05;;;3.65;;
21814;SDS011;11069;48.988;8.450;2023-06-10T09:06:34;4.15;;;3.28;;
21814;SDS011;11069;48.988;8.450;2023-06-10T09:09:01;3.60;;;3.30;;
21814;SDS011;11069;48.988;8.450;2023-06-10T09:11:28;4.25;;;3.47;;
21814;SDS011;11069;48.988;8.450;2023-06-10T09:13:54;4.25;;;3.72;;
21814;SDS011;11069;48.988;8.450;2023-06-10T09:16:20;4.93;;;3.50;;
21814;SDS011;11069;48.988;8.450;2023-06-10T09:18:46;4.22;;;3.70;;
21814;SDS011;11069;48.988;8.450;2023-06-10T09:21:12;4.80;;;4.05;;
21814;SDS011;11069;48.988;8.450;2023-06-10T09:23:38;4.55;;;3.65;;
21814;SDS011;11069;48.988;8.450;2023-06-10T09:26:08;4.32;;;3.88;;
21814;SDS011;11069;48.988;8.450;2023-06-10T09:28:35;5.30;;;4.20;;
21814;SDS011;11069;48.988;8.450;2023-06-10T09:31:05;4.03;;;3.63;;
21814;SDS011;11069;48.988;8.450;2023-06-10T09:33:32;5.38;;;3.80;;
21814;SDS011;11069;48.988;8.450;2023-06-10T09:35:59;4.30;;;3.90;;
21814;SDS011;11069;48.988;8.450;2023-06-10T09:38:30;3.92;;;3.53;;
21814;SDS011;11069;48.988;8.450;2023-06-10T09:40:59;4.28;;;3.88;;
21814;SDS011;11069;48.988;8.450;2023-06-10T09:43:43;6.20;;;4.05;;
21814;SDS011;11069;48.988;8.450;2023-06-10T09:46:14;4.68;;;3.80;;
21814;SDS011;11069;48.988;8.450;2023-06-10T09:51:08;4.90;;;4.20;;
21814;SDS011;11069;48.988;8.450;2023-06-10T09:53:35;4.38;;;3.97;;
21814;SDS011;11069;48.988;8.450;2023-06-10T09:56:01;4.78;;;3.80;;
21814;SDS011;11069;48.988;8.450;2023-06-10T09:58:37;5.18;;;3.50;;
21814;SDS011;11069;48.988;8.450;2023-06-10T10:01:10;3.75;;;3.45;;
21814;SDS011;11069;48.988;8.450;2023-06-10T10:03:51;4.10;;;3.60;;
21814;SDS011;11069;48.988;8.450;2023-06-10T10:06:18;4.28;;;3.88;;
21814;SDS011;11069;48.988;8.450;2023-06-10T10:08:48;4.10;;;3.70;;
21814;SDS011;11069;48.988;8.450;2023-06-10T10:11:16;4.57;;;4.00;;
21814;SDS011;11069;48.988;8.450;2023-06-10T10:13:42;4.75;;;4.18;;
21814;SDS011;11069;48.988;8.450;2023-06-10T10:16:11;4.75;;;4.22;;
21814;SDS011;11069;48.988;8.450;2023-06-10T10:18:39;4.38;;;3.90;;
21814;SDS011;11069;48.988;8.450;2023-06-10T10:21:07;5.80;;;4.55;;
21814;SDS011;11069;48.988;8.450;2023-06-10T10:23:42;5.88;;;4.20;;
21814;SDS011;11069;48.988;8.450;2023-06-10T10:26:10;4.53;;;4.03;;
21814;SDS011;11069;48.988;8.450;2023-06-10T10:28:41;5.07;;;4.30;;
21814;SDS011;11069;48.988;8.450;2023-06-10T10:31:08;4.78;;;4.28;;
21814;SDS011;11069;48.988;8.450;2023-06-10T10:33:50;5.00;;;4.35;;
21814;SDS011;11069;48.988;8.450;2023-06-10T10:36:17;4.85;;;4.10;;
21814;SDS011;11069;48.988;8.450;2023-06-10T10:38:44;4.68;;;4.15;;
21814;SDS011;11069;48.988;8.450;2023-06-10T10:41:11;5.93;;;4.43;;
21814;SDS011;11069;48.988;8.450;2023-06-10T10:43:38;6.07;;;4.60;;
21814;SDS011;11069;48.988;8.450;2023-06-10T10:46:14;4.40;;;4.00;;
21814;SDS011;11069;48.988;8.450;2023-06-10T10:48:40;6.28;;;4.25;;
21814;SDS011;11069;48.988;8.450;2023-06-10T10:51:07;4.65;;;3.92;;
21814;SDS011;11069;48.988;8.450;2023-06-10T10:53:33;4.72;;;4.22;;
21814;SDS011;11069;48.988;8.450;2023-06-10T10:56:01;5.40;;;3.80;;
21814;SDS011;11069;48.988;8.450;2023-06-10T11:00:57;4.55;;;4.10;;
21814;SDS011;11069;48.988;8.450;2023-06-10T11:03:24;4.65;;;4.15;;
21814;SDS011;11069;48.988;8.450;2023-06-10T11:10:54;3.88;;;3.40;;
21814;SDS011;11069;48.988;8.450;2023-06-10T11:13:21;4.97;;;4.10;;
21814;SDS011;11069;48.988;8.450;2023-06-10T11:15:50;4.38;;;3.28;;
21814;SDS011;11069;48.988;8.450;2023-06-10T11:18:34;3.08;;;2.78;;
21814;SDS011;11069;48.988;8.450;2023-06-10T11:21:04;4.40;;;4.00;;
21814;SDS011;11069;48.988;8.450;2023-06-10T11:28:41;4.15;;;3.70;;
21814;SDS011;11069;48.988;8.450;2023-06-10T11:31:08;4.38;;;3.90;;
21814;SDS011;11069;48.988;8.450;2023-06-10T11:33:37;4.38;;;3.97;;
21814;SDS011;11069;48.988;8.450;2023-06-10T11:36:06;4.30;;;3.88;;
21814;SDS011;11069;48.988;8.450;2023-06-10T11:38:32;4.18;;;3.63;;
21814;SDS011;11069;48.988;8.450;2023-06-10T11:40:58;4.40;;;3.90;;
21814;SDS011;11069;48.988;8.450;2023-06-10T11:43:25;6.30;;;4.28;;
21814;SDS011;11069;48.988;8.450;2023-06-10T11:45:53;4.40;;;4.00;;
21814;SDS011;11069;48.988;8.450;2023-06-10T11:48:21;4.25;;;3.85;;
21814;SDS011;11069;48.988;8.450;2023-06-10T11:50:47;4.82;;;3.97;;
21814;SDS011;11069;48.988;8.450;2023-06-10T11:53:13;4.50;;;3.90;;
21814;SDS011;11069;48.988;8.450;2023-06-10T11:55:42;4.13;;;3.72;;
21814;SDS011;11069;48.988;8.450;2023-06-10T11:58:15;4.22;;;3.63;;
21814;SDS011;11069;48.988;8.450;2023-06-10T12:00:48;4.50;;;3.97;;
21814;SDS011;11069;48.988;8.450;2023-06-10T12:03:14;5.90;;;3.92;;
21814;SDS011;11069;48.988;8.450;2023-06-10T12:05:53;6.30;;;4.28;;
21814;SDS011;11069;48.988;8.450;2023-06-10T12:08:19;4.95;;;3.75;;
21814;SDS011;11069;48.988;8.450;2023-06-10T12:10:45;4.75;;;4.15;;
21814;SDS011;11069;48.988;8.450;2023-06-10T12:13:11;3.85;;;3.50;;
21814;SDS011;11069;48.988;8.450;2023-06-10T12:15:37;3.88;;;3.47;;
21814;SDS011;11069;48.988;8.450;2023-06-10T12:18:03;4.53;;;3.70;;
21814;SDS011;11069;48.988;8.450;2023-06-10T12:20:30;4.28;;;3.40;;
21814;SDS011;11069;48.988;8.450;2023-06-10T12:22:59;5.15;;;4.00;;
21814;SDS011;11069;48.988;8.450;2023-06-10T12:25:27;3.63;;;3.33;;
21814;SDS011;11069;48.988;8.450;2023-06-10T12:27:54;4.45;;;3.55;;
21814;SDS011;11069;48.988;8.450;2023-06-10T12:30:21;4.40;;;3.53;;
21814;SDS011;11069;48.988;8.450;2023-06-10T12:32:47;5.35;;;3.65;;
21814;SDS011;11069;48.988;8.450;2023-06-10T12:35:20;4.78;;;3.80;;
21814;SDS011;11069;48.988;8.450;2023-06-10T12:37:59;4.55;;;3.42;;
21814;SDS011;11069;48.988;8.450;2023-06-10T12:40:32;4.10;;;3.60;;
21814;SDS011;11069;48.988;8.450;2023-06-10T12:42:59;4.30;;;3.33;;
21814;SDS011;11069;48.988;8.450;2023-06-10T12:45:26;6.70;;;3.60;;
21814;SDS011;11069;48.988;8.450;2023-06-10T12:48:03;3.65;;;3.35;;
21814;SDS011;11069;48.988;8.450;2023-06-10T12:50:29;3.58;;;3.17;;
21814;SDS011;11069;48.988;8.450;2023-06-10T12:52:56;4.53;;;3.60;;
21814;SDS011;11069;48.988;8.450;2023-06-10T12:55:22;4.55;;;3.50;;
21814;SDS011;11069;48.988;8.450;2023-06-10T12:57:51;3.63;;;3.33;;
21814;SDS011;11069;48.988;8.450;2023-06-10T13:00:18;3.92;;;3.40;;
21814;SDS011;11069;48.988;8.450;2023-06-10T13:02:44;3.83;;;3.03;;
21814;SDS011;11069;48.988;8.450;2023-06-10T13:05:10;4.75;;;3.58;;
21814;SDS011;11069;48.988;8.450;2023-06-10T13:07:36;3.88;;;3.53;;
21814;SDS011;11069;48.988;8.450;2023-06-10T13:10:02;3.85;;;3.40;;
21814;SDS011;11069;48.988;8.450;2023-06-10T13:12:28;4.00;;;3.45;;
21814;SDS011;11069;48.988;8.450;2023-06-10T13:14:55;3.58;;;3.28;;
21814;SDS011;11069;48.988;8.450;2023-06-10T13:17:23;3.50;;;3.20;;
21814;SDS011;11069;48.988;8.450;2023-06-10T13:19:49;8.57;;;3.63;;
21814;SDS011;11069;48.988;8.450;2023-06-10T13:22:15;5.43;;;3.08;;
21814;SDS011;11069;48.988;8.450;2023-06-10T13:24:41;3.72;;;3.25;;
21814;SDS011;11069;48.988;8.450;2023-06-10T13:27:08;4.38;;;3.60;;
21814;SDS011;11069;48.988;8.450;2023-06-10T13:29:34;4.03;;;3.60;;
21814;SDS011;11069;48.988;8.450;2023-06-10T13:32:00;4.18;;;3.78;;
21814;SDS011;11069;48.988;8.450;2023-06-10T13:34:26;3.85;;;3.50;;
21814;SDS011;11069;48.988;8.450;2023-06-10T13:36:53;3.80;;;3.35;;
21814;SDS011;11069;48.988;8.450;2023-06-10T13:39:19;4.22;;;3.78;;
21814;SDS011;11069;48.988;8.450;2023-06-10T13:41:45;3.50;;;3.10;;
21814;SDS011;11069;48.988;8.450;2023-06-10T13:44:11;3.65;;;3.35;;
21814;SDS011;11069;48.988;8.450;2023-06-10T13:46:37;3.30;;;2.95;;
21814;SDS011;11069;48.988;8.450;2023-06-10T13:49:03;3.63;;;3.33;;
21814;SDS011;11069;48.988;8.450;2023-06-10T13:51:29;3.53;;;3.03;;
21814;SDS011;11069;48.988;8.450;2023-06-10T13:53:55;3.50;;;3.20;;
21814;SDS011;11069;48.988;8.450;2023-06-10T13:56:21;3.50;;;3.20;;
21814;SDS011;11069;48.988;8.450;2023-06-10T13:58:48;5.03;;;3.53;;
21814;SDS011;11069;48.988;8.450;2023-06-10T14:01:14;3.88;;;3.25;;
21814;SDS011;11069;48.988;8.450;2023-06-10T14:03:40;3.70;;;3.40;;
21814;SDS011;11069;48.988;8.450;2023-06-10T14:06:05;4.50;;;3.65;;
21814;SDS011;11069;48.988;8.450;2023-06-10T14:08:32;4.18;;;3.20;;
21814;SDS011;11069;48.988;8.450;2023-06-10T14:10:58;4.57;;;3.45;;
21814;SDS011;11069;48.988;8.450;2023-06-10T14:13:24;4.05;;;3.63;;
21814;SDS011;11069;48.988;8.450;2023-06-10T14:15:50;3.63;;;3.30;;
21814;SDS011;11069;48.988;8.450;2023-06-10T14:18:16;3.83;;;3.30;;
21814;SDS011;11069;48.988;8.450;2023-06-10T14:20:42;4.93;;;3.33;;
21814;SDS011;11069;48.988;8.450;2023-06-10T14:23:08;6.10;;;3.53;;
21814;SDS011;11069;48.988;8.450;2023-06-10T14:25:34;4.00;;;3.15;;
21814;SDS011;11069;48.988;8.450;2023-06-10T14:28:00;3.92;;;3.53;;
21814;SDS011;11069;48.988;8.450;2023-06-10T14:30:26;3.67;;;3.25;;
21814;SDS011;11069;48.988;8.450;2023-06-10T14:32:52;3.50;;;2.92;;
21814;SDS011;11069;48.988;8.450;2023-06-10T14:35:18;3.67;;;3.38;;
21814;SDS011;11069;48.988;8.450;2023-06-10T14:37:45;3.65;;;3.20;;
21814;SDS011;11069;48.988;8.450;2023-06-10T14:40:11;4.20;;;3.35;;
21814;SDS011;11069;48.988;8.450;2023-06-10T14:42:37;4.40;;;4.00;;
21814;SDS011;11069;48.988;8.450;2023-06-10T14:45:03;3.97;;;3.40;;
21814;SDS011;11069;48.988;8.450;2023-06-10T14:47:30;3.42;;;3.13;;
21814;SDS011;11069;48.988;8.450;2023-06-10T14:49:56;6.80;;;5.05;;
21814;SDS011;11069;48.988;8.450;2023-06-10T14:52:22;3.13;;;2.83;;
21814;SDS011;11069;48.988;8.450;2023-06-10T14:54:48;3.67;;;3.20;;
21814;SDS011;11069;48.988;8.450;2023-06-10T14:57:14;3.45;;;3.15;;
21814;SDS011;11069;48.988;8.450;2023-06-10T14:59:40;3.25;;;2.95;;
21814;SDS011;11069;48.988;8.450;2023-06-10T15:02:06;6.95;;;5.55;;
21814;SDS011;11069;48.988;8.450;2023-06-10T15:04:32;4.50;;;3.92;;
21814;SDS011;11069;48.988;8.450;2023-06-10T15:06:58;4.57;;;4.05;;
21814;SDS011;11069;48.988;8.450;2023-06-10T15:09:24;4.45;;;3.58;;